sensor_id;sensor_type;location;lat;lon;timestamp;P1;durP1;ratioP1;P2;durP2;ratioP2
23222;SDS011;11780;13.904;100.620;2022-08-02T13:30:20;21.35;;;5.80;;
23222;SDS011;11780;13.904;100.620;2022-08-02T13:32:53;10.05;;;5.38;;
23222;SDS011;11780;13.904;100.620;2022-08-02T13:35:27;16.02;;;7.40;;
23222;SDS011;11780;13.904;100.620;2022-08-02T13:37:58;11.15;;;5.68;;
23222;SDS011;11780;13.904;100.620;2022-08-02T13:43:19;12.10;;;5.03;;
23222;SDS011;11780;13.904;100.620;2022-08-02T13:46:10;12.43;;;5.35;;
23222;SDS011;11780;13.904;100.620;2022-08-02T13:48:40;16.25;;;7.30;;
23222;SDS011;11780;13.904;100.620;2022-08-02T13:51:10;14.30;;;6.22;;
23222;SDS011;11780;13.904;100.620;2022-08-02T13:53:43;26.88;;;8.88;;
23222;SDS011;11780;13.904;100.620;2022-08-02T13:56:13;17.33;;;7.18;;
23222;SDS011;11780;13.904;100.620;2022-08-02T13:58:44;15.07;;;6.38;;
23222;SDS011;11780;13.904;100.620;2022-08-02T14:01:14;16.38;;;6.35;;
23222;SDS011;11780;13.904;100.620;2022-08-02T14:03:44;15.95;;;6.32;;
23222;SDS011;11780;13.904;100.620;2022-08-02T14:06:35;11.27;;;5.20;;
23222;SDS011;11780;13.904;100.620;2022-08-02T14:09:06;11.98;;;5.03;;
23222;SDS011;11780;13.904;100.620;2022-08-02T14:11:44;11.50;;;4.72;;
23222;SDS011;11780;13.904;100.620;2022-08-02T14:14:14;10.30;;;5.03;;
23222;SDS011;11780;13.904;100.620;2022-08-02T14:16:45;11.65;;;4.82;;
23222;SDS011;11780;13.904;100.620;2022-08-02T14:19:15;10.32;;;4.90;;
23222;SDS011;11780;13.904;100.620;2022-08-02T14:21:45;10.55;;;4.88;;
23222;SDS011;11780;13.904;100.620;2022-08-02T14:24:17;9.98;;;4.45;;
23222;SDS011;11780;13.904;100.620;2022-08-02T14:26:55;8.90;;;4.93;;
23222;SDS011;11780;13.904;100.620;2022-08-02T14:29:25;11.75;;;5.75;;
23222;SDS011;11780;13.904;100.620;2022-08-02T14:31:55;10.00;;;4.65;;
23222;SDS011;11780;13.904;100.620;2022-08-02T14:34:25;10.88;;;5.10;;
23222;SDS011;11780;13.904;100.620;2022-08-02T14:36:55;10.05;;;4.55;;
23222;SDS011;11780;13.904;100.620;2022-08-02T14:39:25;8.18;;;4.88;;
23222;SDS011;11780;13.904;100.620;2022-08-02T14:42:16;8.90;;;4.40;;
23222;SDS011;11780;13.904;100.620;2022-08-02T14:44:46;6.22;;;3.90;;
23222;SDS011;11780;13.904;100.620;2022-08-02T14:47:16;7.68;;;3.92;;
23222;SDS011;11780;13.904;100.620;2022-08-02T14:49:47;5.83;;;3.67;;
23222;SDS011;11780;13.904;100.620;2022-08-02T14:52:18;8.03;;;4.13;;
23222;SDS011;11780;13.904;100.620;2022-08-02T14:54:48;10.52;;;3.38;;
23222;SDS011;11780;13.904;100.620;2022-08-02T14:57:19;8.07;;;3.90;;
23222;SDS011;11780;13.904;100.620;2022-08-02T14:59:50;7.43;;;3.85;;
23222;SDS011;11780;13.904;100.620;2022-08-02T15:02:20;6.20;;;3.57;;
23222;SDS011;11780;13.904;100.620;2022-08-02T15:04:50;10.32;;;3.55;;
23222;SDS011;11780;13.904;100.620;2022-08-02T15:07:20;5.15;;;3.55;;
23222;SDS011;11780;13.904;100.620;2022-08-02T15:09:50;7.20;;;3.45;;
23222;SDS011;11780;13.904;100.620;2022-08-02T15:12:20;6.55;;;2.92;;
23222;SDS011;11780;13.904;100.620;2022-08-02T15:14:51;11.47;;;3.20;;
23222;SDS011;11780;13.904;100.620;2022-08-02T15:17:21;9.75;;;3.58;;
23222;SDS011;11780;13.904;100.620;2022-08-02T15:19:51;8.20;;;3.20;;
23222;SDS011;11780;13.904;100.620;2022-08-02T15:22:27;7.13;;;3.17;;
23222;SDS011;11780;13.904;100.620;2022-08-02T15:24:59;10.27;;;3.38;;
23222;SDS011;11780;13.904;100.620;2022-08-02T15:27:29;8.07;;;3.35;;
23222;SDS011;11780;13.904;100.620;2022-08-02T15:30:03;9.68;;;3.92;;
23222;SDS011;11780;13.904;100.620;2022-08-02T15:32:34;9.00;;;2.90;;
23222;SDS011;11780;13.904;100.620;2022-08-02T15:35:04;13.38;;;4.05;;
23222;SDS011;11780;13.904;100.620;2022-08-02T15:40:08;10.05;;;3.55;;
23222;SDS011;11780;13.904;100.620;2022-08-02T15:42:38;13.43;;;3.78;;
23222;SDS011;11780;13.904;100.620;2022-08-02T15:45:09;14.68;;;3.97;;
23222;SDS011;11780;13.904;100.620;2022-08-02T15:47:42;8.80;;;3.38;;
23222;SDS011;11780;13.904;100.620;2022-08-02T15:50:17;9.90;;;4.28;;
23222;SDS011;11780;13.904;100.620;2022-08-02T15:52:47;10.13;;;3.20;;
23222;SDS011;11780;13.904;100.620;2022-08-02T15:55:18;10.40;;;3.88;;
23222;SDS011;11780;13.904;100.620;2022-08-02T15:57:48;7.07;;;2.95;;
23222;SDS011;11780;13.904;100.620;2022-08-02T16:00:18;9.80;;;2.80;;
23222;SDS011;11780;13.904;100.620;2022-08-02T16:02:48;7.10;;;3.17;;
23222;SDS011;11780;13.904;100.620;2022-08-02T16:05:21;5.43;;;3.00;;
23222;SDS011;11780;13.904;100.620;2022-08-02T16:07:52;8.57;;;3.05;;
23222;SDS011;11780;13.904;100.620;2022-08-02T16:10:22;6.13;;;3.53;;
23222;SDS011;11780;13.904;100.620;2022-08-02T16:12:52;8.73;;;2.70;;
23222;SDS011;11780;13.904;100.620;2022-08-02T16:15:43;6.38;;;3.33;;
23222;SDS011;11780;13.904;100.620;2022-08-02T16:18:13;6.60;;;2.70;;
23222;SDS011;11780;13.904;100.620;2022-08-02T16:20:44;9.07;;;3.47;;
23222;SDS011;11780;13.904;100.620;2022-08-02T16:23:14;8.68;;;3.30;;
23222;SDS011;11780;13.904;100.620;2022-08-02T16:26:04;5.72;;;2.50;;
23222;SDS011;11780;13.904;100.620;2022-08-02T16:28:35;7.17;;;3.10;;
23222;SDS011;11780;13.904;100.620;2022-08-02T16:31:05;9.00;;;3.90;;
23222;SDS011;11780;13.904;100.620;2022-08-02T16:33:37;6.53;;;3.00;;
23222;SDS011;11780;13.904;100.620;2022-08-02T16:36:11;7.93;;;3.13;;
23222;SDS011;11780;13.904;100.620;2022-08-02T16:38:45;8.57;;;3.15;;
23222;SDS011;11780;13.904;100.620;2022-08-02T16:41:15;5.75;;;2.72;;
23222;SDS011;11780;13.904;100.620;2022-08-02T16:43:46;7.03;;;3.22;;
23222;SDS011;11780;13.904;100.620;2022-08-02T16:46:16;7.82;;;3.17;;
23222;SDS011;11780;13.904;100.620;2022-08-02T16:48:47;5.93;;;3.22;;
23222;SDS011;11780;13.904;100.620;2022-08-02T16:51:17;8.70;;;3.42;;
23222;SDS011;11780;13.904;100.620;2022-08-02T16:53:48;7.73;;;3.40;;
23222;SDS011;11780;13.904;100.620;2022-08-02T16:56:27;10.05;;;3.10;;
23222;SDS011;11780;13.904;100.620;2022-08-02T16:58:57;10.37;;;3.37;;
23222;SDS011;11780;13.904;100.620;2022-08-02T17:01:30;4.43;;;2.75;;
23222;SDS011;11780;13.904;100.620;2022-08-02T17:04:23;8.75;;;3.50;;
23222;SDS011;11780;13.904;100.620;2022-08-02T17:06:54;7.45;;;3.15;;
23222;SDS011;11780;13.904;100.620;2022-08-02T17:09:25;8.30;;;3.65;;
23222;SDS011;11780;13.904;100.620;2022-08-02T17:12:15;9.13;;;3.78;;
23222;SDS011;11780;13.904;100.620;2022-08-02T17:14:48;6.75;;;3.60;;
23222;SDS011;11780;13.904;100.620;2022-08-02T17:17:22;6.68;;;3.17;;
23222;SDS011;11780;13.904;100.620;2022-08-02T17:20:01;7.32;;;3.35;;
23222;SDS011;11780;13.904;100.620;2022-08-02T17:22:32;5.25;;;3.08;;
23222;SDS011;11780;13.904;100.620;2022-08-02T17:25:03;5.77;;;3.63;;
23222;SDS011;11780;13.904;100.620;2022-08-02T17:27:37;7.55;;;3.53;;
23222;SDS011;11780;13.904;100.620;2022-08-02T17:30:08;5.50;;;3.47;;
23222;SDS011;11780;13.904;100.620;2022-08-02T17:32:39;7.18;;;3.70;;
23222;SDS011;11780;13.904;100.620;2022-08-02T17:35:11;7.47;;;3.05;;
23222;SDS011;11780;13.904;100.620;2022-08-02T17:40:26;8.30;;;3.95;;
23222;SDS011;11780;13.904;100.620;2022-08-02T17:42:56;7.38;;;3.33;;
23222;SDS011;11780;13.904;100.620;2022-08-02T17:45:26;8.40;;;2.97;;
23222;SDS011;11780;13.904;100.620;2022-08-02T17:48:17;8.13;;;4.20;;
23222;SDS011;11780;13.904;100.620;2022-08-02T17:50:55;9.77;;;3.10;;
23222;SDS011;11780;13.904;100.620;2022-08-02T17:53:25;5.78;;;3.08;;
23222;SDS011;11780;13.904;100.620;2022-08-02T17:56:02;5.80;;;3.58;;
23222;SDS011;11780;13.904;100.620;2022-08-02T17:58:32;9.52;;;3.65;;
23222;SDS011;11780;13.904;100.620;2022-08-02T18:01:18;6.43;;;3.42;;
23222;SDS011;11780;13.904;100.620;2022-08-02T18:03:50;6.18;;;3.78;;
23222;SDS011;11780;13.904;100.620;2022-08-02T18:06:20;8.75;;;3.17;;
23222;SDS011;11780;13.904;100.620;2022-08-02T18:11:23;6.03;;;3.08;;
23222;SDS011;11780;13.904;100.620;2022-08-02T18:14:13;5.47;;;3.30;;
23222;SDS011;11780;13.904;100.620;2022-08-02T18:16:52;11.50;;;3.72;;
23222;SDS011;11780;13.904;100.620;2022-08-02T18:19:23;8.90;;;4.03;;
23222;SDS011;11780;13.904;100.620;2022-08-02T18:22:09;8.80;;;3.55;;
23222;SDS011;11780;13.904;100.620;2022-08-02T18:24:39;5.77;;;3.87;;
23222;SDS011;11780;13.904;100.620;2022-08-02T18:27:10;7.20;;;3.58;;
23222;SDS011;11780;13.904;100.620;2022-08-02T18:29:46;9.68;;;3.88;;
23222;SDS011;11780;13.904;100.620;2022-08-02T18:32:30;4.78;;;3.08;;
23222;SDS011;11780;13.904;100.620;2022-08-02T18:35:20;4.35;;;3.70;;
23222;SDS011;11780;13.904;100.620;2022-08-02T18:37:55;5.65;;;3.80;;
23222;SDS011;11780;13.904;100.620;2022-08-02T18:40:36;8.38;;;3.90;;
23222;SDS011;11780;13.904;100.620;2022-08-02T18:43:07;7.20;;;3.50;;
23222;SDS011;11780;13.904;100.620;2022-08-02T18:45:40;9.05;;;4.03;;
23222;SDS011;11780;13.904;100.620;2022-08-02T18:48:30;6.65;;;4.25;;
23222;SDS011;11780;13.904;100.620;2022-08-02T18:53:32;9.82;;;4.03;;
23222;SDS011;11780;13.904;100.620;2022-08-02T18:56:11;7.63;;;3.95;;
23222;SDS011;11780;13.904;100.620;2022-08-02T18:58:51;7.40;;;3.58;;
23222;SDS011;11780;13.904;100.620;2022-08-02T19:01:24;8.00;;;4.00;;
23222;SDS011;11780;13.904;100.620;2022-08-02T19:04:00;8.50;;;4.57;;
23222;SDS011;11780;13.904;100.620;2022-08-02T19:06:31;7.25;;;3.80;;
23222;SDS011;11780;13.904;100.620;2022-08-02T19:09:01;7.13;;;3.63;;
23222;SDS011;11780;13.904;100.620;2022-08-02T19:11:40;11.85;;;4.47;;
23222;SDS011;11780;13.904;100.620;2022-08-02T19:14:16;8.02;;;4.63;;
23222;SDS011;11780;13.904;100.620;2022-08-02T19:16:57;9.82;;;4.10;;
23222;SDS011;11780;13.904;100.620;2022-08-02T19:19:48;6.13;;;4.15;;
23222;SDS011;11780;13.904;100.620;2022-08-02T19:22:22;10.50;;;4.53;;
23222;SDS011;11780;13.904;100.620;2022-08-02T19:27:28;7.38;;;4.40;;
23222;SDS011;11780;13.904;100.620;2022-08-02T19:30:00;6.57;;;3.50;;
23222;SDS011;11780;13.904;100.620;2022-08-02T19:32:33;9.07;;;4.53;;
23222;SDS011;11780;13.904;100.620;2022-08-02T19:35:07;6.28;;;4.60;;
23222;SDS011;11780;13.904;100.620;2022-08-02T19:38:06;9.13;;;4.30;;
23222;SDS011;11780;13.904;100.620;2022-08-02T19:40:38;8.82;;;4.10;;
23222;SDS011;11780;13.904;100.620;2022-08-02T19:43:11;12.27;;;4.13;;
23222;SDS011;11780;13.904;100.620;2022-08-02T19:46:02;6.72;;;4.55;;
23222;SDS011;11780;13.904;100.620;2022-08-02T19:48:42;9.50;;;4.45;;
23222;SDS011;11780;13.904;100.620;2022-08-02T19:51:13;9.98;;;3.92;;
23222;SDS011;11780;13.904;100.620;2022-08-02T19:54:03;10.95;;;4.03;;
23222;SDS011;11780;13.904;100.620;2022-08-02T19:56:37;6.30;;;4.00;;
23222;SDS011;11780;13.904;100.620;2022-08-02T19:59:09;7.10;;;3.20;;
23222;SDS011;11780;13.904;100.620;2022-08-02T20:01:40;12.97;;;4.77;;
23222;SDS011;11780;13.904;100.620;2022-08-02T20:04:15;7.72;;;3.40;;
23222;SDS011;11780;13.904;100.620;2022-08-02T20:06:49;7.10;;;3.50;;
23222;SDS011;11780;13.904;100.620;2022-08-02T20:09:20;8.60;;;4.10;;
23222;SDS011;11780;13.904;100.620;2022-08-02T20:11:59;7.50;;;3.95;;
23222;SDS011;11780;13.904;100.620;2022-08-02T20:14:30;10.48;;;4.45;;
23222;SDS011;11780;13.904;100.620;2022-08-02T20:17:02;8.27;;;4.20;;
23222;SDS011;11780;13.904;100.620;2022-08-02T20:19:39;11.32;;;5.38;;
23222;SDS011;11780;13.904;100.620;2022-08-02T20:22:12;8.57;;;4.47;;
23222;SDS011;11780;13.904;100.620;2022-08-02T20:24:44;7.82;;;4.60;;
23222;SDS011;11780;13.904;100.620;2022-08-02T20:27:14;13.48;;;5.22;;
23222;SDS011;11780;13.904;100.620;2022-08-02T20:29:50;7.18;;;3.67;;
23222;SDS011;11780;13.904;100.620;2022-08-02T20:32:21;5.95;;;3.92;;
23222;SDS011;11780;13.904;100.620;2022-08-02T20:34:51;13.57;;;4.65;;
23222;SDS011;11780;13.904;100.620;2022-08-02T20:37:23;7.30;;;4.43;;
23222;SDS011;11780;13.904;100.620;2022-08-02T20:40:13;12.25;;;4.47;;
23222;SDS011;11780;13.904;100.620;2022-08-02T20:42:45;8.82;;;4.63;;
23222;SDS011;11780;13.904;100.620;2022-08-02T20:45:19;15.27;;;5.22;;
23222;SDS011;11780;13.904;100.620;2022-08-02T20:47:53;10.70;;;4.93;;
23222;SDS011;11780;13.904;100.620;2022-08-02T20:50:26;13.38;;;6.18;;
23222;SDS011;11780;13.904;100.620;2022-08-02T20:53:17;10.63;;;5.30;;
23222;SDS011;11780;13.904;100.620;2022-08-02T20:55:56;11.73;;;5.25;;
23222;SDS011;11780;13.904;100.620;2022-08-02T20:58:26;10.40;;;5.47;;
23222;SDS011;11780;13.904;100.620;2022-08-02T21:00:57;9.27;;;5.05;;
23222;SDS011;11780;13.904;100.620;2022-08-02T21:03:27;15.80;;;5.30;;
23222;SDS011;11780;13.904;100.620;2022-08-02T21:06:07;9.73;;;5.05;;
23222;SDS011;11780;13.904;100.620;2022-08-02T21:08:43;12.50;;;5.13;;
23222;SDS011;11780;13.904;100.620;2022-08-02T21:11:13;10.20;;;4.60;;
23222;SDS011;11780;13.904;100.620;2022-08-02T21:16:35;11.88;;;4.50;;
23222;SDS011;11780;13.904;100.620;2022-08-02T21:19:05;8.82;;;4.13;;
23222;SDS011;11780;13.904;100.620;2022-08-02T21:21:36;9.70;;;5.00;;
23222;SDS011;11780;13.904;100.620;2022-08-02T21:24:06;12.25;;;5.43;;
23222;SDS011;11780;13.904;100.620;2022-08-02T21:26:38;7.45;;;4.63;;
23222;SDS011;11780;13.904;100.620;2022-08-02T21:29:14;8.38;;;4.53;;
23222;SDS011;11780;13.904;100.620;2022-08-02T21:31:45;12.57;;;5.35;;
23222;SDS011;11780;13.904;100.620;2022-08-02T21:34:17;7.90;;;4.43;;
23222;SDS011;11780;13.904;100.620;2022-08-02T21:36:54;6.75;;;4.32;;
23222;SDS011;11780;13.904;100.620;2022-08-02T21:39:25;9.95;;;4.70;;
23222;SDS011;11780;13.904;100.620;2022-08-02T21:41:55;6.10;;;4.30;;
23222;SDS011;11780;13.904;100.620;2022-08-02T21:44:25;10.07;;;4.28;;
23222;SDS011;11780;13.904;100.620;2022-08-02T21:46:55;10.30;;;4.28;;
23222;SDS011;11780;13.904;100.620;2022-08-02T21:49:26;7.07;;;4.27;;
23222;SDS011;11780;13.904;100.620;2022-08-02T21:52:17;7.72;;;4.35;;
23222;SDS011;11780;13.904;100.620;2022-08-02T21:54:52;7.90;;;3.80;;
23222;SDS011;11780;13.904;100.620;2022-08-02T21:57:26;8.27;;;3.97;;
23222;SDS011;11780;13.904;100.620;2022-08-02T22:00:16;7.63;;;3.72;;
23222;SDS011;11780;13.904;100.620;2022-08-02T22:02:55;8.32;;;4.03;;
23222;SDS011;11780;13.904;100.620;2022-08-02T22:05:45;12.50;;;4.45;;
23222;SDS011;11780;13.904;100.620;2022-08-02T22:08:16;10.07;;;3.35;;
23222;SDS011;11780;13.904;100.620;2022-08-02T22:10:50;5.60;;;3.55;;
23222;SDS011;11780;13.904;100.620;2022-08-02T22:13:30;8.20;;;4.07;;
23222;SDS011;11780;13.904;100.620;2022-08-02T22:16:13;9.43;;;4.20;;
23222;SDS011;11780;13.904;100.620;2022-08-02T22:18:44;8.27;;;4.78;;
23222;SDS011;11780;13.904;100.620;2022-08-02T22:21:19;7.78;;;3.95;;
23222;SDS011;11780;13.904;100.620;2022-08-02T22:24:03;13.70;;;4.38;;
23222;SDS011;11780;13.904;100.620;2022-08-02T22:26:45;7.78;;;3.72;;
23222;SDS011;11780;13.904;100.620;2022-08-02T22:29:16;9.20;;;3.97;;
23222;SDS011;11780;13.904;100.620;2022-08-02T22:31:46;10.18;;;4.38;;
23222;SDS011;11780;13.904;100.620;2022-08-02T22:34:16;9.90;;;4.07;;
23222;SDS011;11780;13.904;100.620;2022-08-02T22:37:07;11.98;;;5.05;;
23222;SDS011;11780;13.904;100.620;2022-08-02T22:39:57;8.68;;;4.18;;
23222;SDS011;11780;13.904;100.620;2022-08-02T22:42:35;11.15;;;4.82;;
23222;SDS011;11780;13.904;100.620;2022-08-02T22:45:06;10.90;;;5.07;;
23222;SDS011;11780;13.904;100.620;2022-08-02T22:47:38;9.00;;;4.78;;
23222;SDS011;11780;13.904;100.620;2022-08-02T22:50:17;12.30;;;5.97;;
23222;SDS011;11780;13.904;100.620;2022-08-02T22:52:47;14.47;;;6.33;;
23222;SDS011;11780;13.904;100.620;2022-08-02T22:55:18;13.75;;;6.30;;
23222;SDS011;11780;13.904;100.620;2022-08-02T22:57:49;11.40;;;5.53;;
23222;SDS011;11780;13.904;100.620;2022-08-02T23:00:23;11.45;;;5.47;;
23222;SDS011;11780;13.904;100.620;2022-08-02T23:02:55;16.23;;;7.55;;
